sensor_id;sensor_type;location;lat;lon;timestamp;P1;durP1;ratioP1;P2;durP2;ratioP2
77798;SDS011;66989;50.426;15.352;2023-08-20T00:02:21;10.27;;;8.82;;
77798;SDS011;66989;50.426;15.352;2023-08-20T00:04:49;11.50;;;8.85;;
77798;SDS011;66989;50.426;15.352;2023-08-20T00:07:15;10.68;;;9.30;;
77798;SDS011;66989;50.426;15.352;2023-08-20T00:09:43;10.68;;;8.73;;
77798;SDS011;66989;50.426;15.352;2023-08-20T00:12:08;10.25;;;9.25;;
77798;SDS011;66989;50.426;15.352;2023-08-20T00:17:30;11.77;;;9.40;;
77798;SDS011;66989;50.426;15.352;2023-08-20T00:19:56;9.25;;;8.35;;
77798;SDS011;66989;50.426;15.352;2023-08-20T00:22:22;10.95;;;9.63;;
77798;SDS011;66989;50.426;15.352;2023-08-20T00:24:49;10.73;;;9.63;;
77798;SDS011;66989;50.426;15.352;2023-08-20T00:27:18;10.98;;;9.32;;
77798;SDS011;66989;50.426;15.352;2023-08-20T00:29:44;10.93;;;9.82;;
77798;SDS011;66989;50.426;15.352;2023-08-20T00:32:10;11.00;;;9.77;;
77798;SDS011;66989;50.426;15.352;2023-08-20T00:34:35;10.90;;;9.80;;
77798;SDS011;66989;50.426;15.352;2023-08-20T00:37:01;10.75;;;9.65;;
77798;SDS011;66989;50.426;15.352;2023-08-20T00:39:28;11.15;;;10.05;;
77798;SDS011;66989;50.426;15.352;2023-08-20T00:41:53;10.60;;;9.40;;
77798;SDS011;66989;50.426;15.352;2023-08-20T00:44:19;9.13;;;8.23;;
77798;SDS011;66989;50.426;15.352;2023-08-20T00:46:44;11.30;;;9.98;;
77798;SDS011;66989;50.426;15.352;2023-08-20T00:49:10;11.23;;;10.07;;
77798;SDS011;66989;50.426;15.352;2023-08-20T00:51:36;11.65;;;10.45;;
77798;SDS011;66989;50.426;15.352;2023-08-20T00:54:02;12.68;;;11.45;;
77798;SDS011;66989;50.426;15.352;2023-08-20T00:56:28;11.57;;;10.48;;
77798;SDS011;66989;50.426;15.352;2023-08-20T00:58:54;11.80;;;10.60;;
77798;SDS011;66989;50.426;15.352;2023-08-20T01:01:21;11.70;;;9.95;;
77798;SDS011;66989;50.426;15.352;2023-08-20T01:03:46;11.00;;;9.85;;
77798;SDS011;66989;50.426;15.352;2023-08-20T01:06:15;11.05;;;9.88;;
77798;SDS011;66989;50.426;15.352;2023-08-20T01:08:53;10.43;;;9.18;;
77798;SDS011;66989;50.426;15.352;2023-08-20T01:11:30;11.25;;;9.32;;
77798;SDS011;66989;50.426;15.352;2023-08-20T01:14:02;10.68;;;9.55;;
77798;SDS011;66989;50.426;15.352;2023-08-20T01:16:27;10.70;;;9.70;;
77798;SDS011;66989;50.426;15.352;2023-08-20T01:18:53;10.80;;;9.18;;
77798;SDS011;66989;50.426;15.352;2023-08-20T01:29:35;10.23;;;8.98;;
77798;SDS011;66989;50.426;15.352;2023-08-20T01:32:01;10.55;;;9.05;;
77798;SDS011;66989;50.426;15.352;2023-08-20T01:34:29;9.52;;;8.25;;
77798;SDS011;66989;50.426;15.352;2023-08-20T01:36:54;9.88;;;8.88;;
77798;SDS011;66989;50.426;15.352;2023-08-20T01:39:20;11.83;;;9.17;;
77798;SDS011;66989;50.426;15.352;2023-08-20T01:41:45;11.27;;;9.60;;
77798;SDS011;66989;50.426;15.352;2023-08-20T01:44:11;8.75;;;7.63;;
77798;SDS011;66989;50.426;15.352;2023-08-20T01:46:36;10.95;;;9.85;;
77798;SDS011;66989;50.426;15.352;2023-08-20T01:49:02;9.65;;;8.43;;
77798;SDS011;66989;50.426;15.352;2023-08-20T01:51:27;10.00;;;9.00;;
77798;SDS011;66989;50.426;15.352;2023-08-20T01:53:53;9.55;;;8.60;;
77798;SDS011;66989;50.426;15.352;2023-08-20T01:56:18;10.23;;;9.23;;
77798;SDS011;66989;50.426;15.352;2023-08-20T01:58:44;10.77;;;9.30;;
77798;SDS011;66989;50.426;15.352;2023-08-20T02:01:09;9.63;;;8.63;;
77798;SDS011;66989;50.426;15.352;2023-08-20T02:03:35;8.95;;;7.85;;
77798;SDS011;66989;50.426;15.352;2023-08-20T02:06:02;9.48;;;8.57;;
77798;SDS011;66989;50.426;15.352;2023-08-20T02:08:28;10.40;;;9.35;;
77798;SDS011;66989;50.426;15.352;2023-08-20T02:11:02;10.57;;;9.13;;
77798;SDS011;66989;50.426;15.352;2023-08-20T02:13:29;10.40;;;9.30;;
77798;SDS011;66989;50.426;15.352;2023-08-20T02:15:59;9.90;;;8.90;;
77798;SDS011;66989;50.426;15.352;2023-08-20T02:18:24;11.00;;;8.40;;
77798;SDS011;66989;50.426;15.352;2023-08-20T02:20:50;9.82;;;8.48;;
77798;SDS011;66989;50.426;15.352;2023-08-20T02:23:15;12.40;;;8.48;;
77798;SDS011;66989;50.426;15.352;2023-08-20T02:25:41;11.27;;;10.17;;
77798;SDS011;66989;50.426;15.352;2023-08-20T02:28:06;10.10;;;9.10;;
77798;SDS011;66989;50.426;15.352;2023-08-20T02:30:31;10.32;;;9.23;;
77798;SDS011;66989;50.426;15.352;2023-08-20T02:32:57;10.77;;;9.68;;
77798;SDS011;66989;50.426;15.352;2023-08-20T02:35:22;11.37;;;9.93;;
77798;SDS011;66989;50.426;15.352;2023-08-20T02:37:48;9.38;;;8.45;;
77798;SDS011;66989;50.426;15.352;2023-08-20T02:40:13;8.93;;;8.03;;
77798;SDS011;66989;50.426;15.352;2023-08-20T02:42:39;9.25;;;8.35;;
77798;SDS011;66989;50.426;15.352;2023-08-20T02:45:05;9.90;;;8.52;;
77798;SDS011;66989;50.426;15.352;2023-08-20T02:47:30;9.50;;;8.57;;
77798;SDS011;66989;50.426;15.352;2023-08-20T02:49:56;9.13;;;8.23;;
77798;SDS011;66989;50.426;15.352;2023-08-20T02:52:21;8.07;;;7.27;;
77798;SDS011;66989;50.426;15.352;2023-08-20T02:54:46;9.47;;;8.47;;
77798;SDS011;66989;50.426;15.352;2023-08-20T02:57:12;9.40;;;8.50;;
77798;SDS011;66989;50.426;15.352;2023-08-20T02:59:37;10.23;;;9.03;;
77798;SDS011;66989;50.426;15.352;2023-08-20T03:02:02;9.68;;;8.68;;
77798;SDS011;66989;50.426;15.352;2023-08-20T03:04:28;10.80;;;9.70;;
77798;SDS011;66989;50.426;15.352;2023-08-20T03:06:53;11.38;;;9.57;;
77798;SDS011;66989;50.426;15.352;2023-08-20T03:09:19;10.47;;;9.37;;
77798;SDS011;66989;50.426;15.352;2023-08-20T03:11:44;9.77;;;8.63;;
77798;SDS011;66989;50.426;15.352;2023-08-20T03:14:10;12.67;;;9.93;;
77798;SDS011;66989;50.426;15.352;2023-08-20T03:16:35;9.55;;;8.60;;
77798;SDS011;66989;50.426;15.352;2023-08-20T03:19:00;10.32;;;9.30;;
77798;SDS011;66989;50.426;15.352;2023-08-20T03:21:26;10.03;;;9.10;;
77798;SDS011;66989;50.426;15.352;2023-08-20T03:23:51;9.82;;;8.32;;
77798;SDS011;66989;50.426;15.352;2023-08-20T03:26:16;8.90;;;8.00;;
77798;SDS011;66989;50.426;15.352;2023-08-20T03:28:42;10.00;;;8.97;;
77798;SDS011;66989;50.426;15.352;2023-08-20T03:31:07;12.55;;;11.35;;
77798;SDS011;66989;50.426;15.352;2023-08-20T03:33:32;10.20;;;9.20;;
77798;SDS011;66989;50.426;15.352;2023-08-20T03:35:57;10.47;;;8.40;;
77798;SDS011;66989;50.426;15.352;2023-08-20T03:38:23;10.90;;;9.13;;
77798;SDS011;66989;50.426;15.352;2023-08-20T03:40:49;10.63;;;9.53;;
77798;SDS011;66989;50.426;15.352;2023-08-20T03:43:14;10.52;;;9.38;;
77798;SDS011;66989;50.426;15.352;2023-08-20T03:45:40;10.23;;;9.20;;
77798;SDS011;66989;50.426;15.352;2023-08-20T03:48:05;10.03;;;8.03;;
77798;SDS011;66989;50.426;15.352;2023-08-20T03:50:31;8.88;;;7.97;;
77798;SDS011;66989;50.426;15.352;2023-08-20T03:52:56;11.20;;;10.10;;
77798;SDS011;66989;50.426;15.352;2023-08-20T03:55:21;10.10;;;8.73;;
77798;SDS011;66989;50.426;15.352;2023-08-20T03:57:46;10.80;;;9.70;;
77798;SDS011;66989;50.426;15.352;2023-08-20T04:00:12;10.90;;;9.80;;
77798;SDS011;66989;50.426;15.352;2023-08-20T04:02:38;10.98;;;9.73;;
77798;SDS011;66989;50.426;15.352;2023-08-20T04:05:03;11.60;;;9.65;;
77798;SDS011;66989;50.426;15.352;2023-08-20T04:07:29;10.85;;;9.73;;
77798;SDS011;66989;50.426;15.352;2023-08-20T04:09:54;11.00;;;9.90;;
77798;SDS011;66989;50.426;15.352;2023-08-20T04:12:20;10.13;;;9.10;;
77798;SDS011;66989;50.426;15.352;2023-08-20T04:14:45;11.20;;;10.07;;
77798;SDS011;66989;50.426;15.352;2023-08-20T04:17:10;10.95;;;9.85;;
77798;SDS011;66989;50.426;15.352;2023-08-20T04:19:36;10.07;;;8.98;;
77798;SDS011;66989;50.426;15.352;2023-08-20T04:22:01;10.00;;;8.83;;
77798;SDS011;66989;50.426;15.352;2023-08-20T04:24:26;8.98;;;8.07;;
77798;SDS011;66989;50.426;15.352;2023-08-20T04:26:52;10.73;;;9.43;;
77798;SDS011;66989;50.426;15.352;2023-08-20T04:29:17;11.23;;;10.10;;
77798;SDS011;66989;50.426;15.352;2023-08-20T04:31:42;10.82;;;9.70;;
77798;SDS011;66989;50.426;15.352;2023-08-20T04:34:08;9.27;;;8.38;;
77798;SDS011;66989;50.426;15.352;2023-08-20T04:36:33;10.00;;;9.00;;
77798;SDS011;66989;50.426;15.352;2023-08-20T04:38:58;9.80;;;8.77;;
77798;SDS011;66989;50.426;15.352;2023-08-20T04:41:24;10.23;;;9.15;;
77798;SDS011;66989;50.426;15.352;2023-08-20T04:43:49;8.90;;;7.88;;
77798;SDS011;66989;50.426;15.352;2023-08-20T04:46:15;10.13;;;8.77;;
77798;SDS011;66989;50.426;15.352;2023-08-20T04:48:40;10.60;;;9.50;;
77798;SDS011;66989;50.426;15.352;2023-08-20T04:51:05;8.63;;;7.73;;
77798;SDS011;66989;50.426;15.352;2023-08-20T04:53:32;10.20;;;9.20;;
77798;SDS011;66989;50.426;15.352;2023-08-20T04:55:57;8.90;;;8.00;;
77798;SDS011;66989;50.426;15.352;2023-08-20T04:58:23;10.95;;;9.48;;
77798;SDS011;66989;50.426;15.352;2023-08-20T05:00:49;10.95;;;9.50;;
77798;SDS011;66989;50.426;15.352;2023-08-20T05:03:14;15.07;;;9.10;;
77798;SDS011;66989;50.426;15.352;2023-08-20T05:05:39;11.13;;;9.52;;
77798;SDS011;66989;50.426;15.352;2023-08-20T05:08:05;9.20;;;8.30;;
77798;SDS011;66989;50.426;15.352;2023-08-20T05:10:30;10.55;;;8.88;;
77798;SDS011;66989;50.426;15.352;2023-08-20T05:12:56;10.02;;;8.70;;
77798;SDS011;66989;50.426;15.352;2023-08-20T05:15:21;10.07;;;9.07;;
77798;SDS011;66989;50.426;15.352;2023-08-20T05:17:47;9.48;;;8.57;;
77798;SDS011;66989;50.426;15.352;2023-08-20T05:20:12;8.97;;;8.07;;
77798;SDS011;66989;50.426;15.352;2023-08-20T05:22:38;8.65;;;7.70;;
77798;SDS011;66989;50.426;15.352;2023-08-20T05:25:03;8.52;;;7.47;;
77798;SDS011;66989;50.426;15.352;2023-08-20T05:27:29;8.30;;;7.50;;
77798;SDS011;66989;50.426;15.352;2023-08-20T05:29:54;8.35;;;7.40;;
77798;SDS011;66989;50.426;15.352;2023-08-20T05:32:19;7.40;;;6.70;;
77798;SDS011;66989;50.426;15.352;2023-08-20T05:34:45;8.52;;;7.72;;
77798;SDS011;66989;50.426;15.352;2023-08-20T05:37:10;8.65;;;7.60;;
77798;SDS011;66989;50.426;15.352;2023-08-20T05:39:36;9.25;;;7.80;;
77798;SDS011;66989;50.426;15.352;2023-08-20T05:42:05;11.13;;;8.25;;
77798;SDS011;66989;50.426;15.352;2023-08-20T05:44:31;9.32;;;8.43;;
77798;SDS011;66989;50.426;15.352;2023-08-20T05:46:56;9.57;;;7.45;;
77798;SDS011;66989;50.426;15.352;2023-08-20T05:49:21;9.23;;;8.13;;
77798;SDS011;66989;50.426;15.352;2023-08-20T05:51:47;9.20;;;8.30;;
77798;SDS011;66989;50.426;15.352;2023-08-20T05:54:12;8.90;;;8.00;;
77798;SDS011;66989;50.426;15.352;2023-08-20T05:56:37;9.27;;;8.25;;
77798;SDS011;66989;50.426;15.352;2023-08-20T05:59:03;9.38;;;8.30;;
77798;SDS011;66989;50.426;15.352;2023-08-20T06:01:28;8.93;;;8.00;;
77798;SDS011;66989;50.426;15.352;2023-08-20T06:03:54;7.65;;;6.95;;
77798;SDS011;66989;50.426;15.352;2023-08-20T06:06:20;10.13;;;8.97;;
77798;SDS011;66989;50.426;15.352;2023-08-20T06:08:46;8.75;;;7.85;;
77798;SDS011;66989;50.426;15.352;2023-08-20T06:11:13;8.45;;;7.65;;
77798;SDS011;66989;50.426;15.352;2023-08-20T06:13:38;8.82;;;7.90;;
77798;SDS011;66989;50.426;15.352;2023-08-20T06:16:04;8.47;;;7.67;;
77798;SDS011;66989;50.426;15.352;2023-08-20T06:18:29;9.20;;;8.40;;
77798;SDS011;66989;50.426;15.352;2023-08-20T06:20:55;8.70;;;7.78;;
77798;SDS011;66989;50.426;15.352;2023-08-20T06:23:20;8.90;;;8.18;;
77798;SDS011;66989;50.426;15.352;2023-08-20T06:25:52;7.85;;;7.15;;
77798;SDS011;66989;50.426;15.352;2023-08-20T06:28:17;8.80;;;7.75;;
77798;SDS011;66989;50.426;15.352;2023-08-20T06:30:44;8.80;;;7.95;;
77798;SDS011;66989;50.426;15.352;2023-08-20T06:33:09;8.60;;;7.80;;
77798;SDS011;66989;50.426;15.352;2023-08-20T06:35:35;8.50;;;7.70;;
77798;SDS011;66989;50.426;15.352;2023-08-20T06:38:00;8.57;;;7.78;;
77798;SDS011;66989;50.426;15.352;2023-08-20T06:40:26;11.55;;;8.18;;
77798;SDS011;66989;50.426;15.352;2023-08-20T06:42:51;8.85;;;8.00;;
77798;SDS011;66989;50.426;15.352;2023-08-20T06:45:16;9.23;;;8.38;;
77798;SDS011;66989;50.426;15.352;2023-08-20T06:47:42;9.48;;;8.57;;
77798;SDS011;66989;50.426;15.352;2023-08-20T06:50:08;13.38;;;9.00;;
77798;SDS011;66989;50.426;15.352;2023-08-20T06:52:34;9.85;;;8.98;;
77798;SDS011;66989;50.426;15.352;2023-08-20T06:54:59;10.88;;;8.60;;
77798;SDS011;66989;50.426;15.352;2023-08-20T06:57:24;12.25;;;8.85;;
77798;SDS011;66989;50.426;15.352;2023-08-20T06:59:50;10.10;;;8.90;;
77798;SDS011;66989;50.426;15.352;2023-08-20T07:02:15;10.10;;;9.00;;
77798;SDS011;66989;50.426;15.352;2023-08-20T07:04:41;25.70;;;20.87;;
77798;SDS011;66989;50.426;15.352;2023-08-20T07:07:06;56.78;;;43.60;;
77798;SDS011;66989;50.426;15.352;2023-08-20T07:09:33;89.75;;;67.13;;
77798;SDS011;66989;50.426;15.352;2023-08-20T07:11:58;56.38;;;42.75;;
77798;SDS011;66989;50.426;15.352;2023-08-20T07:14:23;35.58;;;28.60;;
77798;SDS011;66989;50.426;15.352;2023-08-20T07:16:49;21.52;;;16.77;;
77798;SDS011;66989;50.426;15.352;2023-08-20T07:19:14;20.75;;;17.15;;
77798;SDS011;66989;50.426;15.352;2023-08-20T07:21:40;14.40;;;12.00;;
77798;SDS011;66989;50.426;15.352;2023-08-20T07:24:05;19.60;;;14.87;;
77798;SDS011;66989;50.426;15.352;2023-08-20T07:26:31;17.23;;;15.40;;
77798;SDS011;66989;50.426;15.352;2023-08-20T07:28:56;13.57;;;11.95;;
77798;SDS011;66989;50.426;15.352;2023-08-20T07:33:48;13.95;;;11.90;;
77798;SDS011;66989;50.426;15.352;2023-08-20T07:36:15;15.65;;;14.05;;
77798;SDS011;66989;50.426;15.352;2023-08-20T07:41:11;15.70;;;14.10;;
77798;SDS011;66989;50.426;15.352;2023-08-20T07:43:37;13.48;;;12.18;;
77798;SDS011;66989;50.426;15.352;2023-08-20T07:46:03;11.88;;;10.45;;
77798;SDS011;66989;50.426;15.352;2023-08-20T07:48:29;9.32;;;8.25;;
77798;SDS011;66989;50.426;15.352;2023-08-20T07:50:55;11.10;;;8.13;;
77798;SDS011;66989;50.426;15.352;2023-08-20T07:53:20;9.57;;;8.40;;
77798;SDS011;66989;50.426;15.352;2023-08-20T07:55:45;11.43;;;8.47;;
77798;SDS011;66989;50.426;15.352;2023-08-20T07:58:11;9.68;;;8.57;;
77798;SDS011;66989;50.426;15.352;2023-08-20T08:00:37;9.55;;;8.55;;
77798;SDS011;66989;50.426;15.352;2023-08-20T08:03:03;7.95;;;7.22;;
77798;SDS011;66989;50.426;15.352;2023-08-20T08:05:28;9.23;;;7.65;;
77798;SDS011;66989;50.426;15.352;2023-08-20T08:07:54;9.18;;;7.60;;
77798;SDS011;66989;50.426;15.352;2023-08-20T08:10:19;8.85;;;7.82;;
77798;SDS011;66989;50.426;15.352;2023-08-20T08:12:45;9.82;;;8.82;;
77798;SDS011;66989;50.426;15.352;2023-08-20T08:15:10;10.27;;;9.38;;
77798;SDS011;66989;50.426;15.352;2023-08-20T08:17:36;8.07;;;7.28;;
77798;SDS011;66989;50.426;15.352;2023-08-20T08:20:03;10.07;;;9.07;;
77798;SDS011;66989;50.426;15.352;2023-08-20T08:22:30;9.50;;;8.60;;
77798;SDS011;66989;50.426;15.352;2023-08-20T08:24:55;11.18;;;9.65;;
77798;SDS011;66989;50.426;15.352;2023-08-20T08:27:20;12.27;;;9.52;;
77798;SDS011;66989;50.426;15.352;2023-08-20T08:29:46;16.27;;;14.45;;
77798;SDS011;66989;50.426;15.352;2023-08-20T08:32:11;11.70;;;10.57;;
77798;SDS011;66989;50.426;15.352;2023-08-20T08:34:36;9.57;;;8.60;;
77798;SDS011;66989;50.426;15.352;2023-08-20T08:37:02;8.65;;;7.85;;
77798;SDS011;66989;50.426;15.352;2023-08-20T08:39:27;9.02;;;8.23;;
77798;SDS011;66989;50.426;15.352;2023-08-20T08:41:54;9.53;;;8.07;;
77798;SDS011;66989;50.426;15.352;2023-08-20T08:44:27;9.10;;;8.30;;
77798;SDS011;66989;50.426;15.352;2023-08-20T08:46:53;9.07;;;8.25;;
77798;SDS011;66989;50.426;15.352;2023-08-20T08:51:44;8.52;;;7.72;;
77798;SDS011;66989;50.426;15.352;2023-08-20T08:54:11;8.98;;;7.53;;
77798;SDS011;66989;50.426;15.352;2023-08-20T08:56:38;8.35;;;7.65;;
77798;SDS011;66989;50.426;15.352;2023-08-20T09:01:29;9.07;;;8.18;;
77798;SDS011;66989;50.426;15.352;2023-08-20T09:03:54;9.63;;;8.73;;
77798;SDS011;66989;50.426;15.352;2023-08-20T09:08:45;8.73;;;7.93;;
77798;SDS011;66989;50.426;15.352;2023-08-20T09:11:10;9.10;;;7.90;;
77798;SDS011;66989;50.426;15.352;2023-08-20T09:16:06;9.82;;;7.82;;
77798;SDS011;66989;50.426;15.352;2023-08-20T09:18:50;9.10;;;8.15;;
77798;SDS011;66989;50.426;15.352;2023-08-20T09:21:15;8.95;;;8.10;;
77798;SDS011;66989;50.426;15.352;2023-08-20T09:26:10;8.70;;;7.93;;
77798;SDS011;66989;50.426;15.352;2023-08-20T09:31:07;13.30;;;8.98;;
77798;SDS011;66989;50.426;15.352;2023-08-20T09:33:35;8.65;;;7.82;;
77798;SDS011;66989;50.426;15.352;2023-08-20T09:38:27;9.38;;;7.65;;
77798;SDS011;66989;50.426;15.352;2023-08-20T09:40:53;8.40;;;7.53;;
77798;SDS011;66989;50.426;15.352;2023-08-20T09:43:24;8.98;;;8.07;;
77798;SDS011;66989;50.426;15.352;2023-08-20T09:45:54;7.75;;;7.10;;
77798;SDS011;66989;50.426;15.352;2023-08-20T09:48:21;7.25;;;6.65;;
77798;SDS011;66989;50.426;15.352;2023-08-20T09:50:47;7.50;;;6.88;;
77798;SDS011;66989;50.426;15.352;2023-08-20T09:53:18;9.13;;;6.80;;
77798;SDS011;66989;50.426;15.352;2023-08-20T09:55:52;7.13;;;6.43;;
77798;SDS011;66989;50.426;15.352;2023-08-20T09:58:20;6.82;;;6.22;;
77798;SDS011;66989;50.426;15.352;2023-08-20T10:00:51;9.77;;;6.28;;
77798;SDS011;66989;50.426;15.352;2023-08-20T10:03:17;8.07;;;6.05;;
77798;SDS011;66989;50.426;15.352;2023-08-20T10:05:48;7.18;;;6.38;;
77798;SDS011;66989;50.426;15.352;2023-08-20T10:08:15;8.02;;;7.32;;
77798;SDS011;66989;50.426;15.352;2023-08-20T10:10:41;7.18;;;6.57;;
77798;SDS011;66989;50.426;15.352;2023-08-20T10:13:07;7.82;;;7.22;;
77798;SDS011;66989;50.426;15.352;2023-08-20T10:15:33;9.20;;;8.32;;
77798;SDS011;66989;50.426;15.352;2023-08-20T10:18:01;8.02;;;7.07;;
77798;SDS011;66989;50.426;15.352;2023-08-20T10:20:28;7.13;;;6.53;;
77798;SDS011;66989;50.426;15.352;2023-08-20T10:22:54;8.63;;;5.88;;
77798;SDS011;66989;50.426;15.352;2023-08-20T10:25:26;8.13;;;7.30;;
77798;SDS011;66989;50.426;15.352;2023-08-20T10:27:53;6.88;;;6.28;;
77798;SDS011;66989;50.426;15.352;2023-08-20T10:30:23;6.95;;;6.25;;
77798;SDS011;66989;50.426;15.352;2023-08-20T10:32:57;6.88;;;5.93;;
77798;SDS011;66989;50.426;15.352;2023-08-20T10:38:12;6.47;;;5.93;;
77798;SDS011;66989;50.426;15.352;2023-08-20T10:43:31;6.70;;;6.10;;
77798;SDS011;66989;50.426;15.352;2023-08-20T10:46:04;7.05;;;6.38;;
77798;SDS011;66989;50.426;15.352;2023-08-20T10:48:53;6.85;;;6.35;;
77798;SDS011;66989;50.426;15.352;2023-08-20T10:56:26;6.78;;;6.07;;
77798;SDS011;66989;50.426;15.352;2023-08-20T10:59:08;6.95;;;5.50;;
77798;SDS011;66989;50.426;15.352;2023-08-20T11:01:37;9.05;;;6.07;;
77798;SDS011;66989;50.426;15.352;2023-08-20T11:04:04;7.97;;;7.18;;
77798;SDS011;66989;50.426;15.352;2023-08-20T11:06:32;10.48;;;9.68;;
77798;SDS011;66989;50.426;15.352;2023-08-20T11:08:59;7.15;;;6.38;;
77798;SDS011;66989;50.426;15.352;2023-08-20T11:11:25;7.63;;;7.03;;
77798;SDS011;66989;50.426;15.352;2023-08-20T11:13:50;7.78;;;6.95;;
77798;SDS011;66989;50.426;15.352;2023-08-20T11:16:16;7.53;;;6.53;;
77798;SDS011;66989;50.426;15.352;2023-08-20T11:18:41;6.32;;;5.82;;
77798;SDS011;66989;50.426;15.352;2023-08-20T11:21:07;6.93;;;6.32;;
77798;SDS011;66989;50.426;15.352;2023-08-20T11:23:33;6.72;;;6.05;;
77798;SDS011;66989;50.426;15.352;2023-08-20T11:25:59;7.75;;;7.03;;
77798;SDS011;66989;50.426;15.352;2023-08-20T11:28:28;6.97;;;6.25;;
77798;SDS011;66989;50.426;15.352;2023-08-20T11:30:53;6.53;;;5.93;;
77798;SDS011;66989;50.426;15.352;2023-08-20T11:33:27;8.45;;;7.75;;
77798;SDS011;66989;50.426;15.352;2023-08-20T11:35:54;10.38;;;9.57;;
77798;SDS011;66989;50.426;15.352;2023-08-20T11:38:23;7.72;;;6.47;;
77798;SDS011;66989;50.426;15.352;2023-08-20T11:40:50;7.95;;;7.25;;
77798;SDS011;66989;50.426;15.352;2023-08-20T11:43:15;6.50;;;5.90;;
77798;SDS011;66989;50.426;15.352;2023-08-20T11:45:48;6.95;;;6.45;;
77798;SDS011;66989;50.426;15.352;2023-08-20T11:48:14;6.43;;;5.93;;
77798;SDS011;66989;50.426;15.352;2023-08-20T11:50:41;6.90;;;6.28;;
77798;SDS011;66989;50.426;15.352;2023-08-20T11:53:08;8.95;;;8.35;;
77798;SDS011;66989;50.426;15.352;2023-08-20T11:55:34;7.35;;;6.65;;
77798;SDS011;66989;50.426;15.352;2023-08-20T11:58:00;6.60;;;6.13;;
77798;SDS011;66989;50.426;15.352;2023-08-20T12:00:26;7.43;;;6.82;;
77798;SDS011;66989;50.426;15.352;2023-08-20T12:02:53;8.13;;;7.43;;
77798;SDS011;66989;50.426;15.352;2023-08-20T12:05:26;7.38;;;6.78;;
77798;SDS011;66989;50.426;15.352;2023-08-20T12:08:02;6.63;;;6.13;;
77798;SDS011;66989;50.426;15.352;2023-08-20T12:10:28;7.72;;;6.55;;
77798;SDS011;66989;50.426;15.352;2023-08-20T12:12:55;6.28;;;5.80;;
77798;SDS011;66989;50.426;15.352;2023-08-20T12:15:21;8.48;;;5.90;;
77798;SDS011;66989;50.426;15.352;2023-08-20T12:17:57;6.93;;;6.30;;
77798;SDS011;66989;50.426;15.352;2023-08-20T12:20:22;6.35;;;5.75;;
77798;SDS011;66989;50.426;15.352;2023-08-20T12:22:48;5.65;;;5.13;;
77798;SDS011;66989;50.426;15.352;2023-08-20T12:25:14;7.55;;;5.72;;
77798;SDS011;66989;50.426;15.352;2023-08-20T12:27:39;6.43;;;5.85;;
77798;SDS011;66989;50.426;15.352;2023-08-20T12:30:04;7.13;;;6.40;;
77798;SDS011;66989;50.426;15.352;2023-08-20T12:32:31;6.47;;;5.97;;
77798;SDS011;66989;50.426;15.352;2023-08-20T12:34:56;8.23;;;5.40;;
77798;SDS011;66989;50.426;15.352;2023-08-20T12:37:21;7.55;;;6.15;;
77798;SDS011;66989;50.426;15.352;2023-08-20T12:39:47;7.35;;;6.07;;
77798;SDS011;66989;50.426;15.352;2023-08-20T12:42:13;6.78;;;6.18;;
77798;SDS011;66989;50.426;15.352;2023-08-20T12:44:39;6.85;;;6.25;;
77798;SDS011;66989;50.426;15.352;2023-08-20T12:47:04;6.05;;;5.53;;
77798;SDS011;66989;50.426;15.352;2023-08-20T12:49:30;6.72;;;6.20;;
77798;SDS011;66989;50.426;15.352;2023-08-20T12:51:55;5.30;;;4.90;;
77798;SDS011;66989;50.426;15.352;2023-08-20T12:54:20;6.78;;;6.10;;
77798;SDS011;66989;50.426;15.352;2023-08-20T12:56:46;7.40;;;6.23;;
77798;SDS011;66989;50.426;15.352;2023-08-20T12:59:12;7.00;;;6.35;;
77798;SDS011;66989;50.426;15.352;2023-08-20T13:01:37;5.18;;;4.57;;
77798;SDS011;66989;50.426;15.352;2023-08-20T13:04:03;6.93;;;5.68;;
77798;SDS011;66989;50.426;15.352;2023-08-20T13:06:29;5.97;;;5.43;;
77798;SDS011;66989;50.426;15.352;2023-08-20T13:08:54;8.05;;;7.45;;
77798;SDS011;66989;50.426;15.352;2023-08-20T13:11:20;6.00;;;5.50;;
77798;SDS011;66989;50.426;15.352;2023-08-20T13:13:47;6.72;;;6.03;;
77798;SDS011;66989;50.426;15.352;2023-08-20T13:16:12;7.32;;;5.63;;
77798;SDS011;66989;50.426;15.352;2023-08-20T13:18:38;6.43;;;5.45;;
77798;SDS011;66989;50.426;15.352;2023-08-20T13:21:04;7.45;;;5.30;;
77798;SDS011;66989;50.426;15.352;2023-08-20T13:23:29;6.00;;;5.40;;
77798;SDS011;66989;50.426;15.352;2023-08-20T13:25:55;6.82;;;5.72;;
77798;SDS011;66989;50.426;15.352;2023-08-20T13:28:20;6.63;;;6.03;;
77798;SDS011;66989;50.426;15.352;2023-08-20T13:30:46;5.72;;;5.13;;
77798;SDS011;66989;50.426;15.352;2023-08-20T13:33:14;5.90;;;5.40;;
77798;SDS011;66989;50.426;15.352;2023-08-20T13:35:40;5.93;;;5.18;;
77798;SDS011;66989;50.426;15.352;2023-08-20T13:38:06;6.05;;;5.25;;
77798;SDS011;66989;50.426;15.352;2023-08-20T13:40:31;5.68;;;5.18;;
77798;SDS011;66989;50.426;15.352;2023-08-20T13:42:57;6.55;;;5.93;;
77798;SDS011;66989;50.426;15.352;2023-08-20T13:45:22;6.90;;;6.30;;
77798;SDS011;66989;50.426;15.352;2023-08-20T13:47:47;5.93;;;5.32;;
77798;SDS011;66989;50.426;15.352;2023-08-20T13:50:13;8.07;;;6.40;;
77798;SDS011;66989;50.426;15.352;2023-08-20T13:52:39;6.07;;;5.57;;
77798;SDS011;66989;50.426;15.352;2023-08-20T13:55:05;7.88;;;5.63;;
77798;SDS011;66989;50.426;15.352;2023-08-20T13:57:31;9.35;;;5.20;;
77798;SDS011;66989;50.426;15.352;2023-08-20T13:59:57;7.38;;;4.63;;
77798;SDS011;66989;50.426;15.352;2023-08-20T14:02:23;6.00;;;4.20;;
77798;SDS011;66989;50.426;15.352;2023-08-20T14:04:49;7.10;;;4.85;;
77798;SDS011;66989;50.426;15.352;2023-08-20T14:07:14;4.38;;;3.83;;
77798;SDS011;66989;50.426;15.352;2023-08-20T14:09:39;6.87;;;4.90;;
77798;SDS011;66989;50.426;15.352;2023-08-20T14:12:05;5.22;;;4.60;;
77798;SDS011;66989;50.426;15.352;2023-08-20T14:14:31;6.40;;;5.20;;
77798;SDS011;66989;50.426;15.352;2023-08-20T14:16:56;6.20;;;4.38;;
77798;SDS011;66989;50.426;15.352;2023-08-20T14:19:22;5.15;;;3.58;;
77798;SDS011;66989;50.426;15.352;2023-08-20T14:21:47;6.10;;;4.38;;
77798;SDS011;66989;50.426;15.352;2023-08-20T14:24:13;8.52;;;5.28;;
77798;SDS011;66989;50.426;15.352;2023-08-20T14:26:38;6.88;;;4.20;;
77798;SDS011;66989;50.426;15.352;2023-08-20T14:29:05;4.85;;;4.38;;
77798;SDS011;66989;50.426;15.352;2023-08-20T14:31:30;5.40;;;4.57;;
77798;SDS011;66989;50.426;15.352;2023-08-20T14:36:21;4.78;;;3.53;;
77798;SDS011;66989;50.426;15.352;2023-08-20T14:41:12;6.67;;;4.37;;
77798;SDS011;66989;50.426;15.352;2023-08-20T14:43:37;9.68;;;4.30;;
77798;SDS011;66989;50.426;15.352;2023-08-20T14:46:02;7.10;;;4.47;;
77798;SDS011;66989;50.426;15.352;2023-08-20T14:48:28;4.93;;;4.25;;
77798;SDS011;66989;50.426;15.352;2023-08-20T14:50:53;6.70;;;4.10;;
77798;SDS011;66989;50.426;15.352;2023-08-20T14:53:19;5.90;;;5.15;;
77798;SDS011;66989;50.426;15.352;2023-08-20T14:55:44;8.00;;;4.68;;
77798;SDS011;66989;50.426;15.352;2023-08-20T14:58:11;5.47;;;4.88;;
77798;SDS011;66989;50.426;15.352;2023-08-20T15:03:02;6.07;;;5.47;;
77798;SDS011;66989;50.426;15.352;2023-08-20T15:05:28;8.27;;;5.53;;
77798;SDS011;66989;50.426;15.352;2023-08-20T15:10:19;5.88;;;5.00;;
77798;SDS011;66989;50.426;15.352;2023-08-20T15:12:45;6.10;;;4.82;;
77798;SDS011;66989;50.426;15.352;2023-08-20T15:17:36;5.88;;;5.28;;
77798;SDS011;66989;50.426;15.352;2023-08-20T15:20:02;7.18;;;5.47;;